createdAt,value
2022-12-27T00:00:07.965Z,99.88
2022-12-27T00:01:07.924Z,99.98
2022-12-27T00:02:08.015Z,99.98
2022-12-27T00:03:07.939Z,99.99
2022-12-27T00:04:07.911Z,99.99
2022-12-27T00:05:07.884Z,99.99
2022-12-27T00:06:07.883Z,99.99
2022-12-27T00:07:07.856Z,99.99
2022-12-27T00:08:07.863Z,99.99
2022-12-27T00:09:07.849Z,99.99
2022-12-27T00:10:07.920Z,99.99
2022-12-27T00:11:07.813Z,99.99
2022-12-27T00:12:07.840Z,99.99
2022-12-27T00:13:07.805Z,99.99
2022-12-27T00:14:07.792Z,99.99
2022-12-27T00:15:07.786Z,99.99
2022-12-27T00:16:07.808Z,99.99
2022-12-27T00:17:07.731Z,99.99
2022-12-27T00:18:07.753Z,99.99
2022-12-27T00:19:07.713Z,99.99
2022-12-27T00:20:11.345Z,99.99
2022-12-27T00:21:07.690Z,99.99
2022-12-27T00:22:07.728Z,99.99
2022-12-27T00:23:07.678Z,99.99
2022-12-27T00:24:07.695Z,99.99
2022-12-27T00:25:07.714Z,99.99
2022-12-27T00:26:07.668Z,99.99
2022-12-27T00:27:07.633Z,99.99
2022-12-27T00:28:07.652Z,99.99
2022-12-27T00:29:07.603Z,99.99
2022-12-27T00:30:07.701Z,99.99
2022-12-27T00:31:07.582Z,99.99
2022-12-27T00:32:07.614Z,99.99
2022-12-27T00:33:07.570Z,99.99
2022-12-27T00:34:07.572Z,99.99
2022-12-27T00:35:07.561Z,99.99
2022-12-27T00:36:07.560Z,99.99
2022-12-27T00:37:07.505Z,99.99
2022-12-27T00:38:07.532Z,99.99
2022-12-27T00:39:07.497Z,99.99
2022-12-27T00:40:07.515Z,99.99
2022-12-27T00:41:07.490Z,99.99
2022-12-27T00:42:07.506Z,99.99
2022-12-27T00:43:07.460Z,99.99
2022-12-27T00:44:07.473Z,99.99
2022-12-27T00:45:07.418Z,99.99
2022-12-27T00:46:07.489Z,99.99
2022-12-27T00:47:07.419Z,99.99
2022-12-27T00:48:07.431Z,99.99
2022-12-27T00:49:07.402Z,99.99
2022-12-27T00:50:07.407Z,99.99
2022-12-27T00:51:07.378Z,99.99
2022-12-27T00:52:07.381Z,99.99
2022-12-27T00:53:07.325Z,99.99
2022-12-27T00:54:07.348Z,99.99
2022-12-27T00:55:07.332Z,99.99
2022-12-27T00:56:07.342Z,99.99
2022-12-27T00:57:07.312Z,99.99
2022-12-27T00:58:07.309Z,99.99
2022-12-27T00:59:07.287Z,99.99
2022-12-27T01:00:10.336Z,99.99
2022-12-27T01:01:07.290Z,99.99
2022-12-27T01:02:07.308Z,99.99
2022-12-27T01:03:07.241Z,99.99
2022-12-27T01:04:07.287Z,99.99
2022-12-27T01:05:07.197Z,99.99
2022-12-27T01:06:07.430Z,99.99
2022-12-27T01:07:07.201Z,99.99
2022-12-27T01:08:07.197Z,99.99
2022-12-27T01:09:07.163Z,99.99
2022-12-27T01:10:07.181Z,99.99
2022-12-27T01:11:07.133Z,99.99
2022-12-27T01:12:07.158Z,99.99
2022-12-27T01:13:07.135Z,99.99
2022-12-27T01:14:07.127Z,99.99
2022-12-27T01:15:07.124Z,99.99
2022-12-27T01:16:07.143Z,99.99
2022-12-27T01:17:07.080Z,99.99
2022-12-27T01:18:07.098Z,99.99
2022-12-27T01:19:07.068Z,99.99
2022-12-27T01:20:07.068Z,99.99
2022-12-27T01:21:07.016Z,99.99
2022-12-27T01:22:07.064Z,99.99
2022-12-27T01:23:06.996Z,99.99
2022-12-27T01:24:07.025Z,99.99
2022-12-27T01:25:06.987Z,99.99
2022-12-27T01:26:06.987Z,99.99
2022-12-27T01:27:06.953Z,99.99
2022-12-27T01:28:06.971Z,99.99
2022-12-27T01:29:06.963Z,99.99
2022-12-27T01:30:06.987Z,99.99
2022-12-27T01:31:06.991Z,99.99
2022-12-27T01:32:06.975Z,99.99
2022-12-27T01:33:06.887Z,99.99
2022-12-27T01:34:06.906Z,99.99
2022-12-27T01:35:06.866Z,99.99
2022-12-27T01:36:06.898Z,99.99
2022-12-27T01:37:06.844Z,99.99
2022-12-27T01:38:06.883Z,99.99
2022-12-27T01:39:06.823Z,99.99
2022-12-27T01:40:06.822Z,99.99
2022-12-27T01:41:06.810Z,99.99
2022-12-27T01:42:06.844Z,99.99
2022-12-27T01:43:06.803Z,99.99
2022-12-27T01:44:06.813Z,99.99
2022-12-27T01:45:06.802Z,99.99
2022-12-27T01:46:06.815Z,99.99
2022-12-27T01:47:06.735Z,99.99
2022-12-27T01:48:06.764Z,99.99
2022-12-27T01:49:06.721Z,99.99
2022-12-27T01:50:06.712Z,99.99
2022-12-27T01:51:06.686Z,99.99
2022-12-27T01:52:06.703Z,99.99
2022-12-27T01:53:06.676Z,99.99
2022-12-27T01:54:06.712Z,99.99
2022-12-27T01:55:06.680Z,99.99
2022-12-27T01:56:06.650Z,99.99
2022-12-27T01:57:06.631Z,99.99
2022-12-27T01:58:06.646Z,99.99
2022-12-27T01:59:06.619Z,99.99
2022-12-27T02:00:06.680Z,99.99
2022-12-27T02:01:06.626Z,99.99
2022-12-27T02:02:06.831Z,99.99
2022-12-27T02:03:06.658Z,99.99
2022-12-27T02:04:06.586Z,99.99
2022-12-27T02:05:06.565Z,99.99
2022-12-27T02:06:06.581Z,99.99
2022-12-27T02:07:06.515Z,99.99
2022-12-27T02:08:06.570Z,99.99
2022-12-27T02:09:06.491Z,99.99
2022-12-27T02:10:06.509Z,99.99
2022-12-27T02:11:06.475Z,99.93
2022-12-27T02:12:06.498Z,99.93
2022-12-27T02:13:06.505Z,99.93
2022-12-27T02:14:06.467Z,99.83
2022-12-27T02:15:06.413Z,99.83
2022-12-27T02:16:06.421Z,99.73
2022-12-27T02:17:06.513Z,99.68
2022-12-27T02:18:06.430Z,99.57
2022-12-27T02:19:06.401Z,99.47
2022-12-27T02:20:06.401Z,99.37
2022-12-27T02:21:06.372Z,99.26
2022-12-27T02:22:06.379Z,99.16
2022-12-27T02:23:06.328Z,99.05
2022-12-27T02:24:06.347Z,98.95
2022-12-27T02:25:06.339Z,98.95
2022-12-27T02:26:06.320Z,98.85
2022-12-27T02:27:06.286Z,98.74
2022-12-27T02:28:06.311Z,98.74
2022-12-27T02:29:06.291Z,98.59
2022-12-27T02:30:06.324Z,98.63
2022-12-27T02:31:06.328Z,98.53
2022-12-27T02:32:06.259Z,98.53
2022-12-27T02:33:06.227Z,98.43
2022-12-27T02:34:06.236Z,98.43
2022-12-27T02:35:06.225Z,98.43
2022-12-27T02:36:06.256Z,98.43
2022-12-27T02:37:06.197Z,98.43
2022-12-27T02:38:06.247Z,98.32
2022-12-27T02:39:06.205Z,98.32
2022-12-27T02:40:06.191Z,98.28
2022-12-27T02:41:06.137Z,98.18
2022-12-27T02:42:06.150Z,98.07
2022-12-27T02:43:06.157Z,98.07
2022-12-27T02:44:06.190Z,97.86
2022-12-27T02:45:06.119Z,97.86
2022-12-27T02:46:06.119Z,97.75
2022-12-27T02:47:06.066Z,97.65
2022-12-27T02:48:06.134Z,97.55
2022-12-27T02:49:06.083Z,97.44
2022-12-27T02:50:06.064Z,97.24
2022-12-27T02:51:06.014Z,97.13
2022-12-27T02:52:06.069Z,96.88
2022-12-27T02:53:06.015Z,96.77
2022-12-27T02:54:06.024Z,96.67
2022-12-27T02:55:05.985Z,96.56
2022-12-27T02:56:06.004Z,96.46
2022-12-27T02:57:06.001Z,96.36
2022-12-27T02:58:05.991Z,96.15
2022-12-27T02:59:05.967Z,96.04
2022-12-27T03:00:05.964Z,95.94
2022-12-27T03:01:05.994Z,95.83
2022-12-27T03:02:06.515Z,95.73
2022-12-27T03:03:05.925Z,95.62
2022-12-27T03:04:05.892Z,95.52
2022-12-27T03:05:05.863Z,95.52
2022-12-27T03:06:05.868Z,95.52
2022-12-27T03:07:05.938Z,95.52
2022-12-27T03:08:05.838Z,95.42
2022-12-27T03:09:05.830Z,95.42
2022-12-27T03:10:06.062Z,95.42
2022-12-27T03:11:05.795Z,95.42
2022-12-27T03:12:05.811Z,95.52
2022-12-27T03:13:05.776Z,95.52
2022-12-27T03:14:05.802Z,95.62
2022-12-27T03:15:05.765Z,95.62
2022-12-27T03:16:05.768Z,95.62
2022-12-27T03:17:05.733Z,95.58
2022-12-27T03:18:05.752Z,95.62
2022-12-27T03:19:05.704Z,95.58
2022-12-27T03:20:05.703Z,95.62
2022-12-27T03:21:05.671Z,95.58
2022-12-27T03:22:05.773Z,95.58
2022-12-27T03:23:05.654Z,95.58
2022-12-27T03:24:05.681Z,95.58
2022-12-27T03:25:05.648Z,95.58
2022-12-27T03:26:05.658Z,95.58
2022-12-27T03:27:05.608Z,95.58
2022-12-27T03:28:05.637Z,95.48
2022-12-27T03:29:05.611Z,95.48
2022-12-27T03:30:05.599Z,95.37
2022-12-27T03:31:05.600Z,95.27
2022-12-27T03:32:05.579Z,95.27
2022-12-27T03:33:05.545Z,95.17
2022-12-27T03:34:05.561Z,95.06
2022-12-27T03:35:05.510Z,94.85
2022-12-27T03:36:05.549Z,94.70
2022-12-27T03:37:05.508Z,94.70
2022-12-27T03:38:05.760Z,94.49
2022-12-27T03:39:05.508Z,94.29
2022-12-27T03:40:05.488Z,94.08
2022-12-27T03:41:05.470Z,93.98
2022-12-27T03:42:05.493Z,93.98
2022-12-27T03:43:05.428Z,93.98
2022-12-27T03:44:05.448Z,94.08
2022-12-27T03:45:05.401Z,94.08
2022-12-27T03:46:05.540Z,94.18
2022-12-27T03:47:05.385Z,94.08
2022-12-27T03:48:05.409Z,94.08
2022-12-27T03:49:05.408Z,94.08
2022-12-27T03:50:05.367Z,94.08
2022-12-27T03:51:05.495Z,94.08
2022-12-27T03:52:05.356Z,93.98
2022-12-27T03:53:05.320Z,93.87
2022-12-27T03:54:05.350Z,93.87
2022-12-27T03:55:05.295Z,93.87
2022-12-27T03:56:05.339Z,93.77
2022-12-27T03:57:05.317Z,93.52
2022-12-27T03:58:05.267Z,93.52
2022-12-27T03:59:05.265Z,93.41
2022-12-27T04:00:05.280Z,93.41
2022-12-27T04:01:05.275Z,93.41
2022-12-27T04:02:05.399Z,93.31
2022-12-27T04:03:05.224Z,93.20
2022-12-27T04:04:05.245Z,93.20
2022-12-27T04:05:05.184Z,93.20
2022-12-27T04:06:05.240Z,93.20
2022-12-27T04:07:05.175Z,93.20
2022-12-27T04:08:05.176Z,93.20
2022-12-27T04:09:05.155Z,93.20
2022-12-27T04:10:05.174Z,93.31
2022-12-27T04:11:05.112Z,93.31
2022-12-27T04:12:05.131Z,93.31
2022-12-27T04:13:05.138Z,93.41
2022-12-27T04:14:05.130Z,93.31
2022-12-27T04:15:05.083Z,93.10
2022-12-27T04:16:05.099Z,92.89
2022-12-27T04:17:05.080Z,92.79
2022-12-27T04:18:05.065Z,92.89
2022-12-27T04:19:05.064Z,92.89
2022-12-27T04:20:05.029Z,92.99
2022-12-27T04:21:05.069Z,93.10
2022-12-27T04:22:04.988Z,93.10
2022-12-27T04:23:05.137Z,93.10
2022-12-27T04:24:04.966Z,93.10
2022-12-27T04:25:04.984Z,93.20
2022-12-27T04:26:04.999Z,93.20
2022-12-27T04:27:04.952Z,93.20
2022-12-27T04:28:04.917Z,93.20
2022-12-27T04:29:04.951Z,93.20
2022-12-27T04:30:04.931Z,93.20
2022-12-27T04:31:04.935Z,93.31
2022-12-27T04:32:04.884Z,93.31
2022-12-27T04:33:04.863Z,93.31
2022-12-27T04:34:04.837Z,93.20
2022-12-27T04:35:04.874Z,93.31
2022-12-27T04:36:06.604Z,93.31
2022-12-27T04:37:04.858Z,93.20
2022-12-27T04:38:04.799Z,93.16
2022-12-27T04:39:04.822Z,93.16
2022-12-27T04:40:04.781Z,93.20
2022-12-27T04:41:04.784Z,93.16
2022-12-27T04:42:04.783Z,93.16
2022-12-27T04:43:04.787Z,93.05
2022-12-27T04:44:04.733Z,93.05
2022-12-27T04:45:06.861Z,92.95
2022-12-27T04:46:04.755Z,92.95
2022-12-27T04:47:04.713Z,92.85
2022-12-27T04:48:04.702Z,92.85
2022-12-27T04:49:04.780Z,92.85
2022-12-27T04:50:04.709Z,92.74
2022-12-27T04:51:04.673Z,92.74
2022-12-27T04:52:04.644Z,92.74
2022-12-27T04:53:04.657Z,92.74
2022-12-27T04:54:04.655Z,92.85
2022-12-27T04:55:04.630Z,92.85
2022-12-27T04:56:04.609Z,92.74
2022-12-27T04:57:04.619Z,92.74
2022-12-27T04:58:04.579Z,92.74
2022-12-27T04:59:04.589Z,92.85
2022-12-27T05:00:04.553Z,92.95
2022-12-27T05:01:07.866Z,93.05
2022-12-27T05:02:05.766Z,93.05
2022-12-27T05:03:04.630Z,93.05
2022-12-27T05:04:04.499Z,93.16
2022-12-27T05:05:04.528Z,93.16
2022-12-27T05:06:04.497Z,93.16
2022-12-27T05:07:04.508Z,93.16
2022-12-27T05:08:04.461Z,93.05
2022-12-27T05:09:04.479Z,93.16
2022-12-27T05:10:04.433Z,93.16
2022-12-27T05:11:04.449Z,93.05
2022-12-27T05:12:04.415Z,93.05
2022-12-27T05:13:04.433Z,93.05
2022-12-27T05:14:04.397Z,93.16
2022-12-27T05:15:04.435Z,93.16
2022-12-27T05:16:04.397Z,93.27
2022-12-27T05:17:04.370Z,93.27
2022-12-27T05:18:04.367Z,93.27
2022-12-27T05:19:04.396Z,93.27
2022-12-27T05:20:04.333Z,93.27
2022-12-27T05:21:04.346Z,93.37
2022-12-27T05:22:04.303Z,93.58
2022-12-27T05:23:04.328Z,93.58
2022-12-27T05:24:05.759Z,93.68
2022-12-27T05:25:04.319Z,93.68
2022-12-27T05:26:04.259Z,93.68
2022-12-27T05:27:04.269Z,93.48
2022-12-27T05:28:04.240Z,93.37
2022-12-27T05:29:04.237Z,93.27
2022-12-27T05:30:04.221Z,93.33
2022-12-27T05:31:04.263Z,93.33
2022-12-27T05:32:08.047Z,93.23
2022-12-27T05:33:05.184Z,93.23
2022-12-27T05:34:04.155Z,93.12
2022-12-27T05:35:11.268Z,93.01
2022-12-27T05:36:11.229Z,93.05
2022-12-27T05:37:04.139Z,93.01
2022-12-27T05:38:04.131Z,93.05
2022-12-27T05:39:04.124Z,93.01
2022-12-27T05:40:04.095Z,93.05
2022-12-27T05:41:04.109Z,93.01
2022-12-27T05:42:04.101Z,93.16
2022-12-27T05:43:04.071Z,93.16
2022-12-27T05:44:07.402Z,93.27
2022-12-27T05:45:04.063Z,93.27
2022-12-27T05:46:04.043Z,93.27
2022-12-27T05:47:04.150Z,93.43
2022-12-27T05:48:04.008Z,93.64
2022-12-27T05:49:04.055Z,93.64
2022-12-27T05:50:04.020Z,93.64
2022-12-27T05:51:04.026Z,93.54
2022-12-27T05:52:03.958Z,93.43
2022-12-27T05:53:04.072Z,93.43
2022-12-27T05:54:03.997Z,93.43
2022-12-27T05:55:03.971Z,93.54
2022-12-27T05:56:03.968Z,93.54
2022-12-27T05:57:03.938Z,93.43
2022-12-27T05:58:03.922Z,93.43
2022-12-27T05:59:03.952Z,93.43
2022-12-27T06:00:03.884Z,93.48
2022-12-27T06:01:03.909Z,93.48
2022-12-27T06:02:03.987Z,93.48
2022-12-27T06:03:04.048Z,93.48
2022-12-27T06:04:03.827Z,93.43
2022-12-27T06:05:03.856Z,93.58
2022-12-27T06:06:03.811Z,93.64
2022-12-27T06:07:03.801Z,93.64
2022-12-27T06:08:04.027Z,93.74
2022-12-27T06:09:03.782Z,93.64
2022-12-27T06:10:03.782Z,93.54
2022-12-27T06:11:03.777Z,93.43
2022-12-27T06:12:03.737Z,93.33
2022-12-27T06:13:03.749Z,93.43
2022-12-27T06:14:03.709Z,93.43
2022-12-27T06:15:03.718Z,93.43
2022-12-27T06:16:03.742Z,93.54
2022-12-27T06:17:03.696Z,93.54
2022-12-27T06:18:03.716Z,93.54
2022-12-27T06:19:03.683Z,93.54
2022-12-27T06:20:03.639Z,93.43
2022-12-27T06:21:03.649Z,93.54
2022-12-27T06:22:03.615Z,93.64
2022-12-27T06:23:03.674Z,93.64
2022-12-27T06:24:03.606Z,93.74
2022-12-27T06:25:03.605Z,93.74
2022-12-27T06:26:03.575Z,93.85
2022-12-27T06:27:03.604Z,93.85
2022-12-27T06:28:03.543Z,93.85
2022-12-27T06:29:03.580Z,93.85
2022-12-27T06:30:03.533Z,93.85
2022-12-27T06:31:03.549Z,93.95
2022-12-27T06:32:03.543Z,93.95
2022-12-27T06:33:03.543Z,93.85
2022-12-27T06:34:03.482Z,93.85
2022-12-27T06:35:03.501Z,93.74
2022-12-27T06:36:03.471Z,93.74
2022-12-27T06:37:03.484Z,93.74
2022-12-27T06:38:03.423Z,93.74
2022-12-27T06:39:03.448Z,93.64
2022-12-27T06:40:03.466Z,93.64
2022-12-27T06:41:03.427Z,93.74
2022-12-27T06:42:03.403Z,93.74
2022-12-27T06:43:03.393Z,93.85
2022-12-27T06:44:03.392Z,93.85
2022-12-27T06:45:03.378Z,93.95
2022-12-27T06:46:03.377Z,93.85
2022-12-27T06:47:03.406Z,93.74
2022-12-27T06:48:03.314Z,93.74
2022-12-27T06:49:03.354Z,93.74
2022-12-27T06:50:03.293Z,93.74
2022-12-27T06:51:03.309Z,93.85
2022-12-27T06:52:03.291Z,93.95
2022-12-27T06:53:03.289Z,94.06
2022-12-27T06:54:03.293Z,94.06
2022-12-27T06:55:03.257Z,94.16
2022-12-27T06:56:03.272Z,94.16
2022-12-27T06:57:03.253Z,94.16
2022-12-27T06:58:03.216Z,94.16
2022-12-27T06:59:03.254Z,94.16
2022-12-27T07:00:03.222Z,94.06
2022-12-27T07:01:03.312Z,93.95
2022-12-27T07:02:03.365Z,93.95
2022-12-27T07:03:03.302Z,93.95
2022-12-27T07:04:03.140Z,93.85
2022-12-27T07:05:03.193Z,93.74
2022-12-27T07:06:03.146Z,93.74
2022-12-27T07:07:03.249Z,93.85
2022-12-27T07:08:03.106Z,93.85
2022-12-27T07:09:03.161Z,93.85
2022-12-27T07:10:03.086Z,93.85
2022-12-27T07:11:03.161Z,93.95
2022-12-27T07:12:03.091Z,93.95
2022-12-27T07:13:03.084Z,93.95
2022-12-27T07:14:03.055Z,93.95
2022-12-27T07:15:03.088Z,93.85
2022-12-27T07:16:03.082Z,93.85
2022-12-27T07:17:03.067Z,93.85
2022-12-27T07:18:02.990Z,93.85
2022-12-27T07:19:03.053Z,93.85
2022-12-27T07:20:03.059Z,93.85
2022-12-27T07:21:02.969Z,93.85
2022-12-27T07:22:02.939Z,93.85
2022-12-27T07:23:02.999Z,93.85
2022-12-27T07:24:02.934Z,93.85
2022-12-27T07:25:02.942Z,93.85
2022-12-27T07:26:02.905Z,93.95
2022-12-27T07:27:02.937Z,93.95
2022-12-27T07:28:02.957Z,93.85
2022-12-27T07:29:04.660Z,93.85
2022-12-27T07:30:02.893Z,93.85
2022-12-27T07:31:02.854Z,93.85
2022-12-27T07:32:02.871Z,93.85
2022-12-27T07:33:02.827Z,93.74
2022-12-27T07:34:02.793Z,93.64
2022-12-27T07:35:02.863Z,93.64
2022-12-27T07:36:02.779Z,93.54
2022-12-27T07:37:02.780Z,93.43
2022-12-27T07:38:02.748Z,93.43
2022-12-27T07:39:02.790Z,93.49
2022-12-27T07:40:02.732Z,93.49
2022-12-27T07:41:02.754Z,93.60
2022-12-27T07:42:07.889Z,93.60
2022-12-27T07:43:03.727Z,93.60
2022-12-27T07:44:02.683Z,93.60
2022-12-27T07:45:02.719Z,93.60
2022-12-27T07:46:02.715Z,93.60
2022-12-27T07:47:02.989Z,93.70
2022-12-27T07:48:02.650Z,93.70
2022-12-27T07:49:02.662Z,93.70
2022-12-27T07:50:02.627Z,93.70
2022-12-27T07:51:02.647Z,93.70
2022-12-27T07:52:02.592Z,93.60
2022-12-27T07:53:02.636Z,93.60
2022-12-27T07:54:02.584Z,93.49
2022-12-27T07:55:02.607Z,93.49
2022-12-27T07:56:02.545Z,93.39
2022-12-27T07:57:02.599Z,93.39
2022-12-27T07:58:02.525Z,93.39
2022-12-27T07:59:02.560Z,93.29
2022-12-27T08:00:02.513Z,93.18
2022-12-27T08:01:02.553Z,93.18
2022-12-27T08:02:02.593Z,93.07
2022-12-27T08:03:02.538Z,93.07
2022-12-27T08:04:02.469Z,93.07
2022-12-27T08:05:02.491Z,93.03
2022-12-27T08:06:02.456Z,93.03
2022-12-27T08:07:02.594Z,92.93
2022-12-27T08:08:02.432Z,92.93
2022-12-27T08:09:02.424Z,92.82
2022-12-27T08:10:02.410Z,92.72
2022-12-27T08:11:05.731Z,92.61
2022-12-27T08:12:02.414Z,92.51
2022-12-27T08:13:02.409Z,92.61
2022-12-27T08:14:02.380Z,92.61
2022-12-27T08:15:02.354Z,92.72
2022-12-27T08:16:02.313Z,92.51
2022-12-27T08:17:02.382Z,92.51
2022-12-27T08:18:02.343Z,92.30
2022-12-27T08:19:08.191Z,92.10
2022-12-27T08:20:03.285Z,91.99
2022-12-27T08:21:02.300Z,91.99
2022-12-27T08:22:02.268Z,91.99
2022-12-27T08:23:02.287Z,91.99
2022-12-27T08:24:02.367Z,92.10
2022-12-27T08:25:02.256Z,92.05
2022-12-27T08:26:02.254Z,91.99
2022-12-27T08:27:02.183Z,91.95
2022-12-27T08:28:02.212Z,91.95
2022-12-27T08:29:02.531Z,91.95
2022-12-27T08:30:02.210Z,91.95
2022-12-27T08:31:02.220Z,91.95
2022-12-27T08:32:02.161Z,91.85
2022-12-27T08:33:02.128Z,91.74
2022-12-27T08:34:02.153Z,91.53
2022-12-27T08:35:25.215Z,91.43
2022-12-27T08:36:15.733Z,91.33
2022-12-27T08:37:03.083Z,91.28
2022-12-27T08:38:02.116Z,91.18
2022-12-27T08:39:02.105Z,91.18
2022-12-27T08:40:03.223Z,90.97
2022-12-27T08:41:02.054Z,90.87
2022-12-27T08:42:02.086Z,90.56
2022-12-27T08:43:02.040Z,90.35
2022-12-27T08:44:02.049Z,90.35
2022-12-27T08:45:02.000Z,90.14
2022-12-27T08:46:02.037Z,90.14
2022-12-27T08:47:02.025Z,90.35
2022-12-27T08:48:02.049Z,90.56
2022-12-27T08:49:01.961Z,90.56
2022-12-27T08:50:01.985Z,90.45
2022-12-27T08:51:05.955Z,90.35
2022-12-27T08:52:02.957Z,90.45
2022-12-27T08:53:01.938Z,90.45
2022-12-27T08:54:01.922Z,90.45
2022-12-27T08:55:01.896Z,90.45
2022-12-27T08:56:01.921Z,90.56
2022-12-27T08:57:01.879Z,90.45
2022-12-27T08:58:01.882Z,90.56
2022-12-27T08:59:01.886Z,90.56
2022-12-27T09:00:01.865Z,90.45
2022-12-27T09:01:01.854Z,90.45
2022-12-27T09:02:01.973Z,90.35
2022-12-27T09:03:01.820Z,90.35
2022-12-27T09:04:01.815Z,90.25
2022-12-27T09:05:01.811Z,90.14
2022-12-27T09:06:01.789Z,90.25
2022-12-27T09:07:01.750Z,90.25
2022-12-27T09:08:01.778Z,90.45
2022-12-27T09:09:02.630Z,90.66
2022-12-27T09:10:01.802Z,90.72
2022-12-27T09:11:01.719Z,90.52
2022-12-27T09:12:04.256Z,90.20
2022-12-27T09:13:02.695Z,89.89
2022-12-27T09:14:01.848Z,89.79
2022-12-27T09:15:01.668Z,89.79
2022-12-27T09:16:01.711Z,89.89
2022-12-27T09:17:01.672Z,90.00
2022-12-27T09:18:01.681Z,89.96
2022-12-27T09:19:01.627Z,89.96
2022-12-27T09:20:01.647Z,89.75
2022-12-27T09:21:01.609Z,89.54
2022-12-27T09:22:01.624Z,89.34
2022-12-27T09:23:01.585Z,88.98
2022-12-27T09:24:01.588Z,88.88
2022-12-27T09:25:01.628Z,88.98
2022-12-27T09:26:01.561Z,88.88
2022-12-27T09:27:01.557Z,88.57
2022-12-27T09:28:01.573Z,88.15
2022-12-27T09:29:01.516Z,88.15
2022-12-27T09:30:01.544Z,88.26
2022-12-27T09:31:01.522Z,88.05
2022-12-27T09:32:01.508Z,88.26
2022-12-27T09:33:01.481Z,88.36
2022-12-27T09:34:01.488Z,88.36
2022-12-27T09:35:01.499Z,88.36
2022-12-27T09:36:01.455Z,88.26
2022-12-27T09:37:01.429Z,88.15
2022-12-27T09:38:01.470Z,88.05
2022-12-27T09:39:01.434Z,87.70
2022-12-27T09:40:01.428Z,87.38
2022-12-27T09:41:01.412Z,87.59
2022-12-27T09:43:15.424Z,87.90
2022-12-27T09:44:02.381Z,87.59
2022-12-27T09:45:01.350Z,87.38
2022-12-27T09:46:01.369Z,87.38
2022-12-27T09:47:01.316Z,87.38
2022-12-27T09:48:01.328Z,87.49
2022-12-27T09:49:01.296Z,87.59
2022-12-27T09:50:01.294Z,87.66
2022-12-27T09:51:01.259Z,87.45
2022-12-27T09:52:01.290Z,87.24
2022-12-27T09:53:01.251Z,87.14
2022-12-27T09:54:01.289Z,87.14
2022-12-27T09:55:05.111Z,87.04
2022-12-27T09:56:01.237Z,86.83
2022-12-27T09:57:19.371Z,86.52
2022-12-27T09:58:02.247Z,86.41
2022-12-27T09:59:01.186Z,86.62
2022-12-27T10:00:01.176Z,87.04
2022-12-27T10:01:01.165Z,87.20
2022-12-27T10:02:01.228Z,87.20
2022-12-27T10:03:01.176Z,87.10
2022-12-27T10:04:01.175Z,86.99
2022-12-27T10:06:02.201Z,86.99
2022-12-27T10:07:01.146Z,87.10
2022-12-27T10:08:01.114Z,87.06
2022-12-27T10:09:01.062Z,87.06
2022-12-27T10:10:01.192Z,86.96
2022-12-27T10:11:01.127Z,86.44
2022-12-27T10:12:01.076Z,85.92
2022-12-27T10:13:00.992Z,86.02
2022-12-27T10:14:01.053Z,86.13
2022-12-27T10:15:00.999Z,86.23
2022-12-27T10:16:01.094Z,86.02
2022-12-27T10:17:01.001Z,85.61
2022-12-27T10:18:00.974Z,85.71
2022-12-27T10:19:00.979Z,85.88
2022-12-27T10:20:00.986Z,85.78
2022-12-27T10:21:00.964Z,85.88
2022-12-27T10:22:00.912Z,85.99
2022-12-27T10:23:06.021Z,86.19
2022-12-27T10:24:01.914Z,86.29
2022-12-27T10:25:00.863Z,85.05
2022-12-27T10:26:00.885Z,85.36
2022-12-27T10:27:00.838Z,85.47
2022-12-27T10:28:00.878Z,85.78
2022-12-27T10:29:00.827Z,86.29
2022-12-27T10:30:00.845Z,86.19
2022-12-27T10:31:00.819Z,85.71
2022-12-27T10:32:00.940Z,85.57
2022-12-27T10:33:00.771Z,85.47
2022-12-27T10:34:00.785Z,85.88
2022-12-27T10:35:00.763Z,86.19
2022-12-27T10:36:00.763Z,86.19
2022-12-27T10:37:00.726Z,86.19
2022-12-27T10:38:00.739Z,86.19
2022-12-27T10:39:00.705Z,85.88
2022-12-27T10:40:00.732Z,85.78
2022-12-27T10:41:00.680Z,85.63
2022-12-27T10:42:00.694Z,85.02
2022-12-27T10:43:00.650Z,84.70
2022-12-27T10:44:00.688Z,84.81
2022-12-27T10:45:00.632Z,85.11
2022-12-27T10:46:00.641Z,85.28
2022-12-27T10:47:00.700Z,85.28
2022-12-27T10:48:00.631Z,84.56
2022-12-27T10:50:01.622Z,83.84
2022-12-27T10:51:00.563Z,84.36
2022-12-27T10:52:00.574Z,84.63
2022-12-27T10:53:00.584Z,83.73
2022-12-27T10:54:00.570Z,83.11
2022-12-27T10:55:00.540Z,83.42
2022-12-27T10:56:00.530Z,83.22
2022-12-27T10:57:00.499Z,83.73
2022-12-27T10:58:00.517Z,83.53
2022-12-27T10:59:00.511Z,83.49
2022-12-27T11:00:00.515Z,83.73
2022-12-27T11:01:00.561Z,83.53
2022-12-27T11:02:00.863Z,83.63
2022-12-27T11:03:00.454Z,83.73
2022-12-27T11:04:00.440Z,83.63
2022-12-27T11:05:00.443Z,83.63
2022-12-27T11:06:00.435Z,83.63
2022-12-27T11:07:00.369Z,83.84
2022-12-27T11:08:00.386Z,83.73
2022-12-27T11:09:00.356Z,83.94
2022-12-27T11:10:00.607Z,84.15
2022-12-27T11:11:00.351Z,84.25
2022-12-27T11:12:00.720Z,84.36
2022-12-27T11:13:00.303Z,84.15
2022-12-27T11:14:00.328Z,84.05
2022-12-27T11:15:00.357Z,84.25
2022-12-27T11:16:00.447Z,84.36
2022-12-27T11:17:00.278Z,83.63
2022-12-27T11:18:00.283Z,83.73
2022-12-27T11:19:00.230Z,83.94
2022-12-27T11:20:00.253Z,84.15
2022-12-27T11:21:00.219Z,84.25
2022-12-27T11:22:00.228Z,84.15
2022-12-27T11:23:00.208Z,84.45
2022-12-27T11:24:00.227Z,84.66
2022-12-27T11:25:00.155Z,84.45
2022-12-27T11:26:00.210Z,84.45
2022-12-27T11:27:00.158Z,84.15
2022-12-27T11:28:00.247Z,84.15
2022-12-27T11:29:00.139Z,84.15
2022-12-27T11:30:00.180Z,84.25
2022-12-27T11:31:00.258Z,84.25
2022-12-27T11:32:00.897Z,84.45
2022-12-27T11:33:00.122Z,84.36
2022-12-27T11:34:00.147Z,84.05
2022-12-27T11:35:00.113Z,84.15
2022-12-27T11:36:00.104Z,84.36
2022-12-27T11:37:00.044Z,84.66
2022-12-27T11:38:00.113Z,83.94
2022-12-27T11:39:00.018Z,83.94
2022-12-27T11:40:00.042Z,84.05
2022-12-27T11:41:00.021Z,83.63
2022-12-27T11:42:00.015Z,83.73
2022-12-27T11:42:59.998Z,84.05
2022-12-27T11:43:59.991Z,83.73
2022-12-27T11:44:59.954Z,84.05
2022-12-27T11:45:59.984Z,84.25
2022-12-27T11:47:00.043Z,84.05
2022-12-27T11:47:59.934Z,84.45
2022-12-27T11:48:59.896Z,84.36
2022-12-27T11:49:59.906Z,84.60
2022-12-27T11:50:59.867Z,84.50
2022-12-27T11:51:59.904Z,84.60
2022-12-27T11:52:59.865Z,84.81
2022-12-27T11:53:59.876Z,84.97
2022-12-27T11:54:59.885Z,84.97
2022-12-27T11:55:59.829Z,84.97
2022-12-27T11:56:59.794Z,84.77
2022-12-27T11:57:59.861Z,84.77
2022-12-27T11:58:59.823Z,85.11
2022-12-27T11:59:59.807Z,85.02
2022-12-27T12:01:05.318Z,84.81
2022-12-27T12:02:00.968Z,84.81
2022-12-27T12:02:59.908Z,85.02
2022-12-27T12:03:59.748Z,85.02
2022-12-27T12:04:59.714Z,85.53
2022-12-27T12:05:59.729Z,85.63
2022-12-27T12:06:59.696Z,85.94
2022-12-27T12:07:59.706Z,85.94
2022-12-27T12:08:59.673Z,85.47
2022-12-27T12:09:59.783Z,85.57
2022-12-27T12:10:59.658Z,86.19
2022-12-27T12:11:59.658Z,86.40
2022-12-27T12:12:59.919Z,86.19
2022-12-27T12:13:59.639Z,86.09
2022-12-27T12:14:59.615Z,86.29
2022-12-27T12:15:59.723Z,85.99
2022-12-27T12:16:59.618Z,85.53
2022-12-27T12:17:59.593Z,85.63
2022-12-27T12:18:59.554Z,85.53
2022-12-27T12:19:59.557Z,85.74
2022-12-27T12:20:59.555Z,85.74
2022-12-27T12:21:59.614Z,85.53
2022-12-27T12:22:59.518Z,85.42
2022-12-27T12:23:59.573Z,85.32
2022-12-27T12:24:59.495Z,85.22
2022-12-27T12:25:59.488Z,85.22
2022-12-27T12:26:59.465Z,85.53
2022-12-27T12:27:59.487Z,85.32
2022-12-27T12:29:00.406Z,85.53
2022-12-27T12:29:59.449Z,85.63
2022-12-27T12:30:59.404Z,86.15
2022-12-27T12:31:59.514Z,86.25
2022-12-27T12:32:59.410Z,86.46
2022-12-27T12:33:59.450Z,86.46
2022-12-27T12:34:59.375Z,86.36
2022-12-27T12:35:59.375Z,86.15
2022-12-27T12:36:59.357Z,86.46
2022-12-27T12:37:59.351Z,86.57
2022-12-27T12:38:59.314Z,86.46
2022-12-27T12:39:59.327Z,86.57
2022-12-27T12:40:59.296Z,86.57
2022-12-27T12:41:59.281Z,86.46
2022-12-27T12:42:59.308Z,86.42
2022-12-27T12:43:59.269Z,86.63
2022-12-27T12:44:59.267Z,86.52
2022-12-27T12:45:59.318Z,86.67
2022-12-27T12:46:59.271Z,86.63
2022-12-27T12:47:59.210Z,86.73
2022-12-27T12:48:59.219Z,86.94
2022-12-27T12:49:59.200Z,87.15
2022-12-27T12:50:59.209Z,87.04
2022-12-27T12:51:59.181Z,86.94
2022-12-27T12:52:59.192Z,86.83
2022-12-27T12:53:59.675Z,86.32
2022-12-27T12:54:59.275Z,86.63